createdAt,value
2023-04-09T00:00:42.719Z,40.20
2023-04-09T00:03:15.438Z,39.99
2023-04-09T00:05:46.234Z,40.06
2023-04-09T00:08:17.428Z,40.00
2023-04-09T00:10:47.887Z,39.94
2023-04-09T00:13:28.263Z,40.02
2023-04-09T00:16:01.914Z,39.84
2023-04-09T00:18:34.502Z,39.71
2023-04-09T00:21:04.327Z,39.78
2023-04-09T00:23:34.932Z,39.80
2023-04-09T00:26:05.082Z,39.77
2023-04-09T00:28:35.075Z,39.73
2023-04-09T00:31:06.024Z,39.72
2023-04-09T00:33:37.500Z,39.83
2023-04-09T00:36:08.103Z,40.00
2023-04-09T00:38:38.223Z,39.82
2023-04-09T00:41:08.889Z,40.11
2023-04-09T00:43:39.545Z,40.20
2023-04-09T00:46:09.697Z,40.28
2023-04-09T00:48:41.662Z,40.32
2023-04-09T00:51:12.309Z,40.54
2023-04-09T00:53:44.266Z,40.31
2023-04-09T00:56:17.286Z,40.59
2023-04-09T00:58:48.119Z,40.42
2023-04-09T01:01:18.692Z,40.45
2023-04-09T01:03:51.538Z,40.76
2023-04-09T01:06:30.554Z,40.65
2023-04-09T01:09:08.697Z,40.79
2023-04-09T01:11:49.390Z,40.78
2023-04-09T01:14:30.130Z,40.64
2023-04-09T01:17:08.535Z,40.75
2023-04-09T01:19:51.007Z,40.92
2023-04-09T01:22:47.896Z,40.93
2023-04-09T01:25:39.972Z,40.63
2023-04-09T01:28:22.526Z,40.58
2023-04-09T01:30:56.330Z,40.74
2023-04-09T01:33:29.690Z,40.70
2023-04-09T01:36:02.611Z,40.81
2023-04-09T01:38:33.151Z,40.60
2023-04-09T01:41:05.345Z,40.82
2023-04-09T01:43:39.992Z,40.46
2023-04-09T01:46:12.515Z,40.76
2023-04-09T01:48:43.267Z,40.54
2023-04-09T01:51:14.533Z,40.71
2023-04-09T01:53:45.278Z,40.51
2023-04-09T01:56:15.924Z,40.66
2023-04-09T01:58:48.006Z,40.49
2023-04-09T02:01:29.899Z,40.81
2023-04-09T02:04:06.816Z,40.76
2023-04-09T02:06:46.702Z,40.56
2023-04-09T02:09:23.402Z,40.46
2023-04-09T02:11:56.468Z,40.56
2023-04-09T02:14:30.868Z,40.39
2023-04-09T02:17:01.475Z,40.25
2023-04-09T02:19:43.597Z,40.39
2023-04-09T02:22:14.934Z,40.37
2023-04-09T02:24:44.908Z,40.42
2023-04-09T02:27:14.921Z,40.29
2023-04-09T02:29:46.465Z,40.22
2023-04-09T02:32:16.434Z,40.09
2023-04-09T02:34:46.430Z,40.02
2023-04-09T02:37:17.066Z,40.00
2023-04-09T02:39:47.244Z,40.45
2023-04-09T02:42:17.877Z,40.10
2023-04-09T02:44:49.923Z,40.13
2023-04-09T02:47:20.661Z,40.00
2023-04-09T02:49:51.223Z,40.08
2023-04-09T02:52:24.804Z,39.73
2023-04-09T02:54:56.308Z,39.73
2023-04-09T02:57:27.074Z,39.96
2023-04-09T02:59:59.660Z,39.83
2023-04-09T03:02:30.228Z,39.81
2023-04-09T03:05:00.754Z,39.79
2023-04-09T03:07:31.434Z,40.00
2023-04-09T03:10:01.984Z,39.83
2023-04-09T03:12:32.408Z,39.80
2023-04-09T03:15:05.068Z,39.95
2023-04-09T03:17:35.744Z,39.94
2023-04-09T03:20:06.865Z,39.80
2023-04-09T03:22:40.104Z,39.79
2023-04-09T03:25:12.016Z,39.53
2023-04-09T03:27:42.861Z,39.73
2023-04-09T03:30:16.957Z,39.61
2023-04-09T03:32:47.449Z,39.48
2023-04-09T03:35:17.539Z,39.46
2023-04-09T03:37:48.186Z,39.62
2023-04-09T03:40:18.278Z,39.42
2023-04-09T03:42:48.322Z,39.40
2023-04-09T03:45:21.309Z,39.46
2023-04-09T03:47:51.800Z,39.47
2023-04-09T03:50:22.606Z,39.49
2023-04-09T03:52:52.626Z,39.44
2023-04-09T03:55:23.190Z,39.63
2023-04-09T03:57:53.714Z,39.69
2023-04-09T04:00:26.564Z,39.66
2023-04-09T04:02:57.272Z,39.50
2023-04-09T04:05:28.019Z,39.49
2023-04-09T04:08:01.218Z,39.59
2023-04-09T04:10:31.744Z,39.55
2023-04-09T04:13:02.481Z,39.60
2023-04-09T04:15:34.684Z,39.80
2023-04-09T04:18:05.268Z,39.41
2023-04-09T04:20:36.772Z,39.50
2023-04-09T04:23:07.907Z,39.42
2023-04-09T04:25:38.420Z,39.58
2023-04-09T04:28:08.477Z,39.45
2023-04-09T04:30:43.497Z,39.59
2023-04-09T04:33:17.387Z,39.63
2023-04-09T04:35:48.083Z,39.68
2023-04-09T04:38:18.784Z,39.72
2023-04-09T04:40:49.317Z,39.58
2023-04-09T04:43:19.897Z,39.59
2023-04-09T04:45:53.556Z,39.70
2023-04-09T04:48:23.931Z,39.64
2023-04-09T04:50:59.777Z,39.67
2023-04-09T04:53:30.265Z,39.85
2023-04-09T04:56:00.815Z,39.93
2023-04-09T04:58:32.432Z,39.71
2023-04-09T05:01:04.702Z,39.76
2023-04-09T05:03:35.442Z,39.80
2023-04-09T05:06:05.957Z,39.73
2023-04-09T05:08:36.674Z,39.57
2023-04-09T05:11:07.190Z,39.69
2023-04-09T05:13:37.223Z,39.60
2023-04-09T05:16:10.693Z,39.72
2023-04-09T05:18:40.860Z,39.69
2023-04-09T05:21:11.486Z,39.63
2023-04-09T05:23:42.147Z,39.89
2023-04-09T05:26:12.754Z,40.04
2023-04-09T05:28:43.297Z,39.70
2023-04-09T05:31:16.929Z,39.75
2023-04-09T05:33:47.800Z,39.63
2023-04-09T05:36:20.255Z,39.58
2023-04-09T05:38:52.044Z,39.72
2023-04-09T05:41:23.380Z,39.53
2023-04-09T05:43:54.142Z,39.66
2023-04-09T05:46:26.607Z,39.72
2023-04-09T05:48:57.127Z,39.43
2023-04-09T05:51:27.843Z,39.26
2023-04-09T05:53:58.017Z,39.25
2023-04-09T05:56:28.604Z,39.37
2023-04-09T05:58:59.286Z,39.18
2023-04-09T06:01:31.709Z,39.09
2023-04-09T06:04:02.585Z,38.80
2023-04-09T06:06:33.153Z,38.75
2023-04-09T06:09:04.821Z,38.36
2023-04-09T06:11:36.017Z,38.40
2023-04-09T06:14:06.431Z,38.60
2023-04-09T06:16:40.539Z,38.44
2023-04-09T06:19:17.939Z,38.29
2023-04-09T06:21:48.210Z,38.70
2023-04-09T06:24:18.496Z,38.39
2023-04-09T06:26:48.445Z,38.09
2023-04-09T06:29:19.032Z,38.58
2023-04-09T06:31:51.026Z,38.50
2023-04-09T06:34:21.513Z,37.97
2023-04-09T06:36:52.101Z,38.53
2023-04-09T06:39:22.674Z,38.03
2023-04-09T06:41:52.646Z,38.24
2023-04-09T06:44:24.756Z,37.76
2023-04-09T06:46:56.239Z,38.00
2023-04-09T06:49:26.220Z,37.73
2023-04-09T06:51:56.534Z,37.53
2023-04-09T06:54:29.948Z,37.81
2023-04-09T06:57:00.491Z,37.96
2023-04-09T06:59:30.580Z,37.94
2023-04-09T07:02:03.243Z,37.75
2023-04-09T07:04:33.702Z,37.23
2023-04-09T07:07:04.480Z,37.63
2023-04-09T07:09:34.878Z,37.42
2023-04-09T07:12:04.986Z,37.57
2023-04-09T07:14:35.537Z,37.64
2023-04-09T07:17:07.605Z,37.03
2023-04-09T07:19:37.999Z,37.33
2023-04-09T07:22:08.086Z,37.27
2023-04-09T07:24:38.688Z,36.64
2023-04-09T07:27:09.077Z,36.42
2023-04-09T07:29:39.544Z,36.88
2023-04-09T07:32:11.079Z,36.62
2023-04-09T07:34:41.821Z,36.15
2023-04-09T07:37:12.338Z,36.22
2023-04-09T07:39:43.002Z,36.19
2023-04-09T07:42:13.585Z,35.56
2023-04-09T07:44:44.318Z,35.67
2023-04-09T07:47:18.042Z,35.49
2023-04-09T07:49:48.668Z,35.51
2023-04-09T07:52:20.063Z,34.86
2023-04-09T07:54:49.831Z,34.76
2023-04-09T07:57:20.344Z,35.12
2023-04-09T07:59:50.867Z,34.65
2023-04-09T08:02:23.687Z,34.47
2023-04-09T08:04:54.355Z,34.36
2023-04-09T08:07:25.096Z,34.87
2023-04-09T08:09:55.953Z,34.41
2023-04-09T08:12:26.700Z,34.59
2023-04-09T08:14:56.834Z,34.33
2023-04-09T08:17:29.343Z,34.44
2023-04-09T08:19:59.841Z,33.99
2023-04-09T08:22:30.388Z,33.82
2023-04-09T08:25:02.809Z,33.32
2023-04-09T08:27:34.505Z,33.49
2023-04-09T08:30:05.378Z,33.42
2023-04-09T08:32:38.100Z,33.07
2023-04-09T08:35:10.013Z,32.85
2023-04-09T08:37:40.104Z,33.30
2023-04-09T08:40:12.112Z,32.81
2023-04-09T08:42:47.788Z,32.67
2023-04-09T08:45:17.919Z,33.41
2023-04-09T08:47:52.338Z,33.34
2023-04-09T08:50:24.680Z,33.59
2023-04-09T08:52:57.108Z,33.45
2023-04-09T08:55:27.319Z,33.77
2023-04-09T08:57:58.585Z,33.69
2023-04-09T09:00:29.078Z,33.27
2023-04-09T09:03:10.871Z,33.22
2023-04-09T09:05:43.436Z,33.36
2023-04-09T09:08:15.956Z,33.50
2023-04-09T09:10:48.508Z,33.21
2023-04-09T09:13:24.576Z,33.74
2023-04-09T09:15:57.361Z,33.57
2023-04-09T09:18:44.583Z,33.25
2023-04-09T09:21:16.805Z,33.26
2023-04-09T09:23:49.483Z,33.22
2023-04-09T09:26:21.847Z,33.69
2023-04-09T09:28:52.676Z,33.67
2023-04-09T09:31:25.597Z,33.66
2023-04-09T09:33:58.264Z,33.61
2023-04-09T09:36:37.167Z,33.08
2023-04-09T09:39:10.640Z,33.52
2023-04-09T09:41:42.055Z,33.13
2023-04-09T09:44:14.324Z,33.47
2023-04-09T09:46:45.091Z,33.58
2023-04-09T09:49:17.136Z,33.41
2023-04-09T09:51:47.831Z,33.33
2023-04-09T09:54:25.791Z,33.12
2023-04-09T09:57:00.798Z,32.85
2023-04-09T09:59:40.188Z,33.27
2023-04-09T10:02:22.381Z,32.98
2023-04-09T10:04:55.580Z,33.04
2023-04-09T10:07:27.314Z,33.38
2023-04-09T10:10:01.092Z,33.74
2023-04-09T10:12:32.206Z,33.41
2023-04-09T10:15:06.584Z,33.52
2023-04-09T10:17:37.253Z,33.69
2023-04-09T10:20:17.876Z,33.60
2023-04-09T10:22:52.449Z,33.60
2023-04-09T10:25:23.100Z,33.00
2023-04-09T10:28:04.069Z,32.88
2023-04-09T10:30:38.544Z,32.99
2023-04-09T10:33:14.236Z,33.50
2023-04-09T10:35:49.633Z,32.90
2023-04-09T10:38:19.814Z,32.80
2023-04-09T10:40:52.935Z,32.80
2023-04-09T10:43:24.656Z,32.87
2023-04-09T10:45:54.865Z,32.84
2023-04-09T10:48:27.397Z,33.18
2023-04-09T10:51:00.501Z,32.80
2023-04-09T10:53:31.064Z,33.09
2023-04-09T10:56:01.776Z,32.44
2023-04-09T10:58:32.466Z,32.40
2023-04-09T11:01:05.087Z,32.34
2023-04-09T11:03:47.394Z,32.71
2023-04-09T11:06:25.427Z,33.05
2023-04-09T11:08:56.878Z,32.28
2023-04-09T11:11:31.032Z,32.75
2023-04-09T11:14:03.180Z,32.59
2023-04-09T11:16:34.340Z,32.60
2023-04-09T11:19:05.093Z,32.25
2023-04-09T11:21:38.662Z,32.20
2023-04-09T11:24:08.960Z,32.00
2023-04-09T11:26:40.326Z,32.32
2023-04-09T11:29:11.084Z,31.95
2023-04-09T11:31:41.011Z,31.77
2023-04-09T11:34:12.928Z,32.08
2023-04-09T11:36:45.090Z,32.05
2023-04-09T11:39:15.546Z,31.80
2023-04-09T11:41:47.319Z,31.95
2023-04-09T11:44:17.201Z,31.76
2023-04-09T11:46:47.391Z,31.25
2023-04-09T11:49:17.382Z,31.33
2023-04-09T11:51:50.027Z,31.20
2023-04-09T11:54:19.839Z,30.96
2023-04-09T11:56:56.508Z,31.16
2023-04-09T11:59:26.949Z,31.24
2023-04-09T12:01:59.715Z,31.01
2023-04-09T12:04:30.145Z,31.08
2023-04-09T12:07:02.748Z,31.12
2023-04-09T12:09:33.151Z,31.44
2023-04-09T12:12:03.522Z,31.01
2023-04-09T12:14:33.982Z,30.85
2023-04-09T12:17:03.797Z,30.92
2023-04-09T12:19:33.631Z,30.82
2023-04-09T12:22:05.330Z,30.94
2023-04-09T12:24:35.767Z,30.84
2023-04-09T12:27:05.848Z,30.69
2023-04-09T12:29:36.428Z,30.73
2023-04-09T12:32:07.524Z,30.74
2023-04-09T12:34:37.895Z,30.79
2023-04-09T12:37:09.765Z,31.15
2023-04-09T12:39:39.520Z,30.94
2023-04-09T12:42:09.950Z,31.22
2023-04-09T12:44:40.630Z,30.80
2023-04-09T12:47:10.317Z,30.70
2023-04-09T12:49:42.167Z,31.11
2023-04-09T12:52:15.149Z,30.62
2023-04-09T12:54:45.429Z,30.86
2023-04-09T12:57:15.876Z,31.02
2023-04-09T12:59:47.764Z,30.57
2023-04-09T13:02:18.347Z,30.33
2023-04-09T13:04:49.088Z,30.57
2023-04-09T13:07:21.008Z,30.40
2023-04-09T13:09:53.052Z,30.38
2023-04-09T13:12:23.863Z,30.85
2023-04-09T13:14:57.023Z,30.29
2023-04-09T13:17:27.608Z,30.33
2023-04-09T13:19:58.150Z,30.91
2023-04-09T13:22:30.118Z,30.91
2023-04-09T13:25:00.253Z,30.97
2023-04-09T13:27:30.328Z,30.67
2023-04-09T13:30:00.516Z,30.95
2023-04-09T13:32:30.815Z,30.27
2023-04-09T13:35:00.516Z,30.90
2023-04-09T13:37:32.894Z,30.37
2023-04-09T13:40:03.265Z,30.19
2023-04-09T13:42:33.849Z,30.07
2023-04-09T13:45:03.785Z,30.23
2023-04-09T13:47:33.914Z,30.55
2023-04-09T13:50:04.117Z,30.25
2023-04-09T13:52:35.980Z,30.20
2023-04-09T13:55:06.790Z,30.62
2023-04-09T13:57:41.928Z,30.49
2023-04-09T14:00:13.930Z,30.67
2023-04-09T14:02:44.536Z,30.04
2023-04-09T14:05:15.136Z,30.65
2023-04-09T14:07:47.329Z,30.71
2023-04-09T14:10:17.849Z,30.23
2023-04-09T14:12:48.167Z,30.64
2023-04-09T14:15:17.875Z,31.20
2023-04-09T14:17:48.056Z,32.09
2023-04-09T14:20:20.843Z,32.15
2023-04-09T14:22:52.903Z,31.95
2023-04-09T14:25:23.257Z,31.31
2023-04-09T14:27:53.859Z,31.10
2023-04-09T14:30:24.352Z,31.32
2023-04-09T14:32:54.737Z,31.14
2023-04-09T14:35:24.951Z,31.49
2023-04-09T14:37:57.277Z,30.89
2023-04-09T14:40:27.780Z,30.84
2023-04-09T14:42:57.546Z,31.16
2023-04-09T14:45:28.801Z,30.69
2023-04-09T14:48:01.018Z,30.62
2023-04-09T14:50:34.283Z,30.86
2023-04-09T14:53:07.058Z,30.45
2023-04-09T14:55:37.288Z,30.51
2023-04-09T14:58:08.582Z,30.83
2023-04-09T15:00:39.424Z,31.05
2023-04-09T15:03:09.882Z,30.85
2023-04-09T15:05:40.475Z,30.84
2023-04-09T15:08:13.302Z,30.79
2023-04-09T15:10:43.724Z,30.78
2023-04-09T15:13:14.420Z,30.46
2023-04-09T15:15:46.271Z,31.02
2023-04-09T15:18:19.979Z,31.28
2023-04-09T15:20:52.422Z,31.04
2023-04-09T15:23:24.588Z,31.03
2023-04-09T15:25:55.028Z,30.85
2023-04-09T15:28:25.351Z,31.02
2023-04-09T15:30:57.666Z,31.31
2023-04-09T15:33:28.514Z,30.87
2023-04-09T15:35:58.644Z,30.20
2023-04-09T15:38:31.029Z,30.46
2023-04-09T15:41:01.615Z,30.94
2023-04-09T15:43:32.240Z,30.83
2023-04-09T15:46:09.135Z,30.36
2023-04-09T15:48:39.876Z,30.55
2023-04-09T15:51:11.511Z,30.05
2023-04-09T15:53:43.927Z,30.09
2023-04-09T15:56:16.606Z,30.33
2023-04-09T15:58:46.504Z,30.14
2023-04-09T16:01:17.667Z,29.91
2023-04-09T16:03:52.548Z,30.49
2023-04-09T16:06:22.384Z,30.61
2023-04-09T16:08:54.540Z,30.45
2023-04-09T16:11:25.293Z,30.29
2023-04-09T16:13:56.530Z,30.18
2023-04-09T16:16:26.656Z,30.47
2023-04-09T16:18:57.018Z,30.67
2023-04-09T16:21:30.835Z,30.44
2023-04-09T16:24:04.211Z,30.06
2023-04-09T16:26:34.656Z,30.51
2023-04-09T16:29:05.422Z,30.35
2023-04-09T16:31:35.799Z,30.16
2023-04-09T16:34:06.253Z,30.01
2023-04-09T16:36:37.534Z,30.18
2023-04-09T16:39:09.529Z,29.97
2023-04-09T16:41:39.949Z,30.29
2023-04-09T16:44:11.675Z,30.22
2023-04-09T16:46:41.645Z,30.14
2023-04-09T16:49:11.866Z,30.03
2023-04-09T16:51:41.917Z,29.89
2023-04-09T16:54:15.466Z,30.16
2023-04-09T16:57:46.414Z,29.88
2023-04-09T17:00:18.133Z,30.20
2023-04-09T17:02:48.351Z,29.90
2023-04-09T17:05:18.871Z,29.61
2023-04-09T17:07:48.782Z,29.60
2023-04-09T17:10:20.992Z,29.75
2023-04-09T17:12:51.191Z,29.59
2023-04-09T17:15:21.871Z,29.60
2023-04-09T17:17:53.977Z,29.82
2023-04-09T17:20:25.217Z,29.30
2023-04-09T17:22:55.194Z,29.82
2023-04-09T17:25:26.910Z,29.22
2023-04-09T17:27:57.027Z,29.75
2023-04-09T17:30:27.909Z,29.58
2023-04-09T17:32:58.153Z,29.30
2023-04-09T17:35:28.136Z,29.94
2023-04-09T17:37:58.301Z,29.77
2023-04-09T17:40:31.057Z,29.33
2023-04-09T17:43:01.303Z,29.22
2023-04-09T17:45:31.495Z,29.63
2023-04-09T17:48:01.645Z,29.64
2023-04-09T17:50:31.352Z,29.35
2023-04-09T17:53:02.235Z,29.47
2023-04-09T17:55:33.537Z,29.67
2023-04-09T17:58:03.616Z,29.09
2023-04-09T18:00:34.705Z,29.69
2023-04-09T18:03:05.305Z,29.15
2023-04-09T18:05:37.163Z,29.57
2023-04-09T18:08:08.355Z,29.33
2023-04-09T18:10:40.254Z,29.54
2023-04-09T18:13:10.099Z,29.82
2023-04-09T18:15:40.432Z,29.17
2023-04-09T18:18:10.160Z,29.28
2023-04-09T18:20:40.323Z,29.29
2023-04-09T18:23:10.233Z,29.45
2023-04-09T18:25:42.377Z,29.05
2023-04-09T18:28:12.546Z,29.58
2023-04-09T18:30:42.501Z,29.15
2023-04-09T18:33:12.761Z,29.28
2023-04-09T18:35:42.983Z,29.31
2023-04-09T18:38:13.206Z,29.28
2023-04-09T18:40:46.216Z,29.47
2023-04-09T18:43:16.470Z,29.25
2023-04-09T18:45:46.426Z,29.53
2023-04-09T18:48:16.705Z,29.76
2023-04-09T18:50:47.329Z,29.38
2023-04-09T18:53:17.628Z,29.42
2023-04-09T18:55:49.220Z,29.51
2023-04-09T18:58:19.556Z,29.75
2023-04-09T19:00:51.025Z,29.53
2023-04-09T19:03:21.704Z,29.50
2023-04-09T19:05:53.717Z,29.58
2023-04-09T19:08:24.332Z,29.97
2023-04-09T19:10:56.752Z,29.33
2023-04-09T19:13:27.284Z,29.51
2023-04-09T19:15:57.742Z,29.50
2023-04-09T19:18:28.119Z,29.58
2023-04-09T19:20:58.469Z,29.88
2023-04-09T19:23:30.395Z,30.15
2023-04-09T19:26:01.705Z,29.82
2023-04-09T19:28:32.135Z,29.82
2023-04-09T19:31:03.436Z,30.44
2023-04-09T19:33:34.123Z,30.75
2023-04-09T19:36:04.590Z,31.22
2023-04-09T19:38:34.767Z,31.25
2023-04-09T19:41:07.373Z,31.62
2023-04-09T19:43:39.194Z,31.67
2023-04-09T19:46:10.590Z,31.71
2023-04-09T19:48:41.186Z,32.02
2023-04-09T19:51:17.680Z,32.33
2023-04-09T19:53:48.029Z,31.71
2023-04-09T19:56:20.056Z,32.48
2023-04-09T19:58:49.964Z,31.89
2023-04-09T20:01:20.380Z,32.45
2023-04-09T20:03:50.758Z,32.43
2023-04-09T20:06:22.308Z,32.64
2023-04-09T20:08:53.537Z,32.99
2023-04-09T20:11:26.037Z,33.08
2023-04-09T20:13:57.561Z,32.97
2023-04-09T20:16:27.570Z,33.00
2023-04-09T20:18:57.255Z,33.34
2023-04-09T20:21:27.126Z,33.20
2023-04-09T20:23:57.662Z,33.12
2023-04-09T20:26:29.890Z,32.73
2023-04-09T20:29:00.195Z,33.07
2023-04-09T20:31:31.210Z,33.23
2023-04-09T20:34:01.243Z,33.19
2023-04-09T20:36:31.463Z,33.18
2023-04-09T20:39:01.412Z,33.25
2023-04-09T20:41:33.089Z,33.77
2023-04-09T20:44:02.721Z,33.60
2023-04-09T20:46:32.443Z,33.51
2023-04-09T20:49:04.526Z,33.85
2023-04-09T20:51:35.053Z,33.53
2023-04-09T20:54:05.431Z,33.65
2023-04-09T20:56:37.196Z,33.57
2023-04-09T20:59:06.881Z,33.79
2023-04-09T21:01:38.474Z,33.68
2023-04-09T21:04:09.236Z,33.88
2023-04-09T21:06:40.779Z,33.90
2023-04-09T21:09:11.200Z,34.05
2023-04-09T21:11:43.398Z,33.83
2023-04-09T21:14:15.077Z,33.96
2023-04-09T21:16:45.433Z,33.99
2023-04-09T21:19:15.920Z,34.17
2023-04-09T21:21:46.499Z,34.30
2023-04-09T21:24:18.684Z,34.24
2023-04-09T21:26:52.170Z,34.39
2023-04-09T21:29:22.468Z,34.32
2023-04-09T21:31:52.773Z,34.45
2023-04-09T21:34:22.542Z,34.50
2023-04-09T21:36:52.902Z,34.50
2023-04-09T21:39:23.241Z,34.46
2023-04-09T21:41:55.297Z,34.67
2023-04-09T21:44:25.606Z,34.73
2023-04-09T21:46:55.116Z,35.01
2023-04-09T21:49:25.379Z,34.76
2023-04-09T21:51:56.112Z,35.04
2023-04-09T21:54:26.238Z,34.96
2023-04-09T21:56:58.643Z,34.93
2023-04-09T21:59:28.854Z,34.94
2023-04-09T22:01:59.055Z,35.03
2023-04-09T22:04:29.164Z,35.02
2023-04-09T22:06:59.521Z,34.85
2023-04-09T22:09:29.882Z,35.12
2023-04-09T22:12:03.178Z,35.14
2023-04-09T22:14:33.964Z,34.97
2023-04-09T22:17:04.828Z,35.12
2023-04-09T22:19:35.606Z,35.04
2023-04-09T22:22:05.418Z,35.00
2023-04-09T22:24:35.394Z,35.10
2023-04-09T22:27:07.767Z,35.10
2023-04-09T22:29:38.609Z,35.34
2023-04-09T22:32:08.506Z,35.28
2023-04-09T22:34:38.206Z,35.18
2023-04-09T22:37:08.474Z,35.38
2023-04-09T22:39:38.777Z,35.27
2023-04-09T22:42:11.028Z,35.20
2023-04-09T22:44:41.962Z,35.12
2023-04-09T22:47:12.049Z,35.20
2023-04-09T22:49:42.169Z,35.11
2023-04-09T22:52:12.990Z,35.47
2023-04-09T22:54:43.724Z,35.25
2023-04-09T22:57:15.868Z,35.30
2023-04-09T22:59:46.217Z,35.28
2023-04-09T23:02:16.367Z,35.08
2023-04-09T23:04:46.791Z,35.21
2023-04-09T23:07:16.897Z,35.19
2023-04-09T23:09:48.299Z,35.35
2023-04-09T23:12:20.599Z,35.05
2023-04-09T23:14:50.428Z,35.17
2023-04-09T23:17:23.119Z,34.84
2023-04-09T23:19:54.419Z,35.11
2023-04-09T23:22:25.067Z,35.20
2023-04-09T23:24:55.547Z,34.71
2023-04-09T23:27:29.198Z,35.06
2023-04-09T23:29:59.553Z,34.87
2023-04-09T23:32:29.344Z,35.03
2023-04-09T23:35:01.494Z,35.14
2023-04-09T23:37:31.764Z,34.79
2023-04-09T23:40:01.459Z,35.04
2023-04-09T23:42:34.521Z,34.86
2023-04-09T23:45:06.649Z,35.04
2023-04-09T23:47:38.937Z,34.62
2023-04-09T23:50:10.944Z,35.01
2023-04-09T23:52:41.756Z,34.90
2023-04-09T23:55:12.822Z,34.78
2023-04-09T23:57:45.415Z,34.49
